createdAt,value
2023-01-11T00:00:47.705Z,1.40
2023-01-11T00:04:30.621Z,1.52
2023-01-11T00:08:13.289Z,1.65
2023-01-11T00:11:55.282Z,2.10
2023-01-11T00:15:38.552Z,1.45
2023-01-11T00:19:20.619Z,1.40
2023-01-11T00:23:02.506Z,1.92
2023-01-11T00:26:44.391Z,1.80
2023-01-11T00:30:26.339Z,2.42
2023-01-11T00:34:08.245Z,2.05
2023-01-11T00:37:50.155Z,1.67
2023-01-11T00:41:50.374Z,1.60
2023-01-11T00:45:50.901Z,1.85
2023-01-11T00:49:33.249Z,1.60
2023-01-11T00:53:15.191Z,1.63
2023-01-11T00:56:57.102Z,1.45
2023-01-11T01:00:39.255Z,1.70
2023-01-11T01:04:21.168Z,1.65
2023-01-11T01:08:03.085Z,1.70
2023-01-11T01:11:44.986Z,1.52
2023-01-11T01:15:27.301Z,1.58
2023-01-11T01:19:09.813Z,1.80
2023-01-11T01:22:52.115Z,1.75
2023-01-11T01:26:34.022Z,1.95
2023-01-11T01:30:16.246Z,1.80
2023-01-11T01:33:58.410Z,2.00
2023-01-11T01:37:40.359Z,1.15
2023-01-11T01:41:22.408Z,1.98
2023-01-11T01:45:23.901Z,1.42
2023-01-11T01:49:13.536Z,2.10
2023-01-11T01:53:02.053Z,1.90
2023-01-11T01:56:52.578Z,1.95
2023-01-11T02:00:34.655Z,1.92
2023-01-11T02:04:39.317Z,1.60
2023-01-11T02:08:29.705Z,1.85
2023-01-11T02:12:12.117Z,1.55
2023-01-11T02:16:07.994Z,1.65
2023-01-11T02:20:21.320Z,1.63
2023-01-11T02:24:50.909Z,1.75
2023-01-11T02:29:02.428Z,1.70
2023-01-11T02:33:23.562Z,2.10
2023-01-11T02:37:17.358Z,2.00
2023-01-11T02:41:14.975Z,2.20
2023-01-11T02:45:20.150Z,2.13
2023-01-11T02:49:13.265Z,1.80
2023-01-11T02:53:01.128Z,1.60
2023-01-11T02:56:47.085Z,2.28
2023-01-11T03:00:29.853Z,1.73
2023-01-11T03:04:24.766Z,1.42
2023-01-11T03:08:23.289Z,1.73
2023-01-11T03:12:36.216Z,2.30
2023-01-11T03:16:27.168Z,1.90
2023-01-11T03:20:09.122Z,1.90
2023-01-11T03:24:15.888Z,2.00
2023-01-11T03:28:41.179Z,2.00
2023-01-11T03:32:29.073Z,2.70
2023-01-11T03:36:22.066Z,2.20
2023-01-11T03:40:35.046Z,2.58
2023-01-11T03:44:18.719Z,1.90
2023-01-11T03:48:03.285Z,2.10
2023-01-11T03:51:46.309Z,2.53
2023-01-11T03:55:34.119Z,2.70
2023-01-11T03:59:16.063Z,1.98
2023-01-11T04:03:00.715Z,2.42
2023-01-11T04:06:42.769Z,2.22
2023-01-11T04:10:24.719Z,1.95
2023-01-11T04:14:06.691Z,2.58
2023-01-11T04:17:48.579Z,2.30
2023-01-11T04:21:30.521Z,1.80
2023-01-11T04:25:12.478Z,1.83
2023-01-11T04:28:54.630Z,1.50
2023-01-11T04:32:36.578Z,1.63
2023-01-11T04:36:18.649Z,1.30
2023-01-11T04:40:00.572Z,1.40
2023-01-11T04:43:42.513Z,1.85
2023-01-11T04:47:25.240Z,1.40
2023-01-11T04:51:08.834Z,1.30
2023-01-11T04:54:52.566Z,1.25
2023-01-11T04:58:38.087Z,0.98
2023-01-11T05:02:20.243Z,1.27
2023-01-11T05:06:02.473Z,0.88
2023-01-11T05:09:44.662Z,1.33
2023-01-11T05:13:41.644Z,1.02
2023-01-11T05:17:23.575Z,1.20
2023-01-11T05:21:06.510Z,1.05
2023-01-11T05:24:48.502Z,1.45
2023-01-11T05:28:30.444Z,1.13
2023-01-11T05:32:12.903Z,1.48
2023-01-11T05:36:03.668Z,1.02
2023-01-11T05:39:45.635Z,1.35
2023-01-11T05:43:29.586Z,1.33
2023-01-11T05:47:11.523Z,1.42
2023-01-11T05:50:55.188Z,1.50
2023-01-11T05:54:37.398Z,1.48
2023-01-11T05:58:19.312Z,1.73
2023-01-11T06:02:01.282Z,1.27
2023-01-11T06:05:45.282Z,1.50
2023-01-11T06:09:28.319Z,1.02
2023-01-11T06:13:28.565Z,1.45
2023-01-11T06:17:10.517Z,1.42
2023-01-11T06:20:53.855Z,0.95
2023-01-11T06:24:35.747Z,0.82
2023-01-11T06:28:17.904Z,1.42
2023-01-11T06:31:59.832Z,1.00
2023-01-11T06:35:43.602Z,1.30
2023-01-11T06:39:25.530Z,0.90
2023-01-11T06:43:08.793Z,1.10
2023-01-11T06:46:50.760Z,1.10
2023-01-11T06:50:32.783Z,1.33
2023-01-11T06:54:14.785Z,1.50
2023-01-11T06:57:57.313Z,1.40
2023-01-11T07:01:39.349Z,1.50
2023-01-11T07:05:22.130Z,1.45
2023-01-11T07:09:04.236Z,1.58
2023-01-11T07:12:46.199Z,1.90
2023-01-11T07:16:28.445Z,1.90
2023-01-11T07:20:11.259Z,1.40
2023-01-11T07:23:53.221Z,1.60
2023-01-11T07:27:35.133Z,2.15
2023-01-11T07:31:17.080Z,1.63
2023-01-11T07:34:59.087Z,1.70
2023-01-11T07:38:41.045Z,1.80
2023-01-11T07:42:41.382Z,2.08
2023-01-11T07:46:23.528Z,1.83
2023-01-11T07:50:06.039Z,1.50
2023-01-11T07:53:48.199Z,1.23
2023-01-11T07:57:30.496Z,1.40
2023-01-11T08:01:13.787Z,1.48
2023-01-11T08:04:55.782Z,1.65
2023-01-11T08:08:37.679Z,1.70
2023-01-11T08:12:37.874Z,1.50
2023-01-11T08:16:19.796Z,1.50
2023-01-11T08:20:02.181Z,1.40
2023-01-11T08:23:44.089Z,1.67
2023-01-11T08:27:26.066Z,1.38
2023-01-11T08:31:09.100Z,1.73
2023-01-11T08:34:51.112Z,1.70
2023-01-11T08:38:33.028Z,1.50
2023-01-11T08:42:15.118Z,1.40
2023-01-11T08:45:57.651Z,1.20
2023-01-11T08:49:42.923Z,1.73
2023-01-11T08:53:24.955Z,0.90
2023-01-11T08:57:06.952Z,1.05
2023-01-11T09:00:48.925Z,0.90
2023-01-11T09:04:30.901Z,0.98
2023-01-11T09:08:12.862Z,0.90
2023-01-11T09:11:57.334Z,1.20
2023-01-11T09:15:39.437Z,1.20
2023-01-11T09:19:21.629Z,1.10
2023-01-11T09:23:03.565Z,0.88
2023-01-11T09:26:45.535Z,0.80
2023-01-11T09:30:27.499Z,0.90
2023-01-11T09:34:12.693Z,0.93
2023-01-11T09:37:56.306Z,1.00
2023-01-11T09:42:05.415Z,0.85
2023-01-11T09:45:51.248Z,0.95
2023-01-11T09:49:42.998Z,0.93
2023-01-11T09:53:32.102Z,0.70
2023-01-11T09:57:38.361Z,1.05
2023-01-11T10:01:40.310Z,0.80
2023-01-11T10:05:29.892Z,0.77
2023-01-11T10:18:28.491Z,1.00
2023-01-11T10:22:08.294Z,1.23
2023-01-11T10:25:54.408Z,0.85
2023-01-11T10:29:57.812Z,1.00
2023-01-11T10:34:03.153Z,0.60
2023-01-11T10:38:04.157Z,1.13
2023-01-11T10:42:15.494Z,1.00
2023-01-11T10:46:20.229Z,1.35
2023-01-11T10:50:29.925Z,1.00
2023-01-11T10:54:33.336Z,1.80
2023-01-11T10:58:54.531Z,1.13
2023-01-11T11:03:09.413Z,1.25
2023-01-11T11:07:04.233Z,1.20
2023-01-11T11:11:29.852Z,1.27
2023-01-11T11:15:23.756Z,1.20
2023-01-11T11:19:08.643Z,1.20
2023-01-11T11:22:55.017Z,1.40
2023-01-11T11:26:41.932Z,1.00
2023-01-11T11:30:44.141Z,1.10
2023-01-11T11:34:28.382Z,1.50
2023-01-11T11:38:23.684Z,1.98
2023-01-11T11:42:08.394Z,1.13
2023-01-11T11:46:02.025Z,0.98
2023-01-11T11:49:44.182Z,0.70
2023-01-11T11:53:43.154Z,1.02
2023-01-11T11:57:28.794Z,0.80
2023-01-11T12:01:29.779Z,0.80
2023-01-11T12:05:12.097Z,0.90
2023-01-11T12:08:56.456Z,1.33
2023-01-11T12:12:59.395Z,1.63
2023-01-11T12:16:43.719Z,0.57
2023-01-11T12:20:34.889Z,0.77
2023-01-11T12:24:22.367Z,1.00
2023-01-11T12:28:28.230Z,0.80
2023-01-11T12:32:36.720Z,0.80
2023-01-11T12:36:27.703Z,0.80
2023-01-11T12:40:32.253Z,1.10
2023-01-11T12:44:17.643Z,0.80
2023-01-11T12:48:05.579Z,1.10
2023-01-11T12:51:50.963Z,1.20
2023-01-11T12:56:07.203Z,2.08
2023-01-11T13:00:06.316Z,1.23
2023-01-11T13:04:12.508Z,1.75
2023-01-11T13:08:12.655Z,1.70
2023-01-11T13:11:54.606Z,1.00
2023-01-11T13:16:10.430Z,1.48
2023-01-11T13:20:17.148Z,0.90
2023-01-11T13:24:08.730Z,0.80
2023-01-11T13:27:53.393Z,1.23
2023-01-11T13:31:36.393Z,1.00
2023-01-11T13:35:50.124Z,1.30
2023-01-11T13:39:32.049Z,1.05
2023-01-11T13:43:36.969Z,1.15
2023-01-11T13:47:31.597Z,1.30
2023-01-11T13:51:27.896Z,1.30
2023-01-11T13:55:54.543Z,1.10
2023-01-11T13:59:45.820Z,1.75
2023-01-11T14:03:45.035Z,1.70
2023-01-11T14:07:29.758Z,2.30
2023-01-11T14:11:55.980Z,2.08
2023-01-11T14:15:48.478Z,2.10
2023-01-11T14:19:35.184Z,3.35
2023-01-11T14:23:19.859Z,2.05
2023-01-11T14:27:01.779Z,1.00
2023-01-11T14:30:53.717Z,1.10
2023-01-11T14:35:15.681Z,1.02
2023-01-11T14:39:19.245Z,1.13
2023-01-11T14:43:14.047Z,0.82
2023-01-11T14:47:43.879Z,0.95
2023-01-11T14:51:37.283Z,0.73
2023-01-11T14:55:29.843Z,0.88
2023-01-11T14:59:34.397Z,1.27
2023-01-11T15:03:18.354Z,0.77
2023-01-11T15:07:01.783Z,0.80
2023-01-11T15:10:55.365Z,0.82
2023-01-11T15:14:37.955Z,0.50
2023-01-11T15:18:26.045Z,0.70
2023-01-11T15:22:39.125Z,0.80
2023-01-11T15:26:23.483Z,1.00
2023-01-11T15:30:31.198Z,0.90
2023-01-11T15:34:31.709Z,0.70
2023-01-11T15:38:23.454Z,0.90
2023-01-11T15:42:17.893Z,0.95
2023-01-11T15:46:25.490Z,1.25
2023-01-11T15:54:25.942Z,1.05
2023-01-11T15:58:27.602Z,1.10
2023-01-11T16:02:18.247Z,1.40
2023-01-11T16:06:28.423Z,1.35
2023-01-11T16:10:47.922Z,2.03
2023-01-11T16:14:42.260Z,1.58
2023-01-11T16:18:29.381Z,1.52
2023-01-11T16:22:19.676Z,1.40
2023-01-11T16:26:02.781Z,1.73
2023-01-11T16:29:50.543Z,1.60
2023-01-11T16:33:34.611Z,1.50
2023-01-11T16:37:37.800Z,1.48
2023-01-11T16:41:20.757Z,1.35
2023-01-11T16:45:08.155Z,1.40
2023-01-11T16:49:11.663Z,1.10
2023-01-11T16:52:55.129Z,1.23
2023-01-11T16:56:37.192Z,1.25
2023-01-11T17:00:32.577Z,1.38
2023-01-11T17:04:36.698Z,1.35
2023-01-11T17:08:56.959Z,1.20
2023-01-11T17:12:38.973Z,1.05
2023-01-11T17:16:27.648Z,1.40
2023-01-11T17:20:20.558Z,1.42
2023-01-11T17:24:05.891Z,1.20
2023-01-11T17:28:00.415Z,2.00
2023-01-11T17:31:42.731Z,1.63
2023-01-11T17:35:30.457Z,1.50
2023-01-11T17:39:24.484Z,2.05
2023-01-11T17:43:31.037Z,2.72
2023-01-11T17:47:13.161Z,3.78
2023-01-11T17:50:58.117Z,3.38
2023-01-11T17:54:40.147Z,3.53
2023-01-11T17:58:26.342Z,2.28
2023-01-11T18:02:14.123Z,2.90
2023-01-11T18:05:56.269Z,3.00
2023-01-11T18:09:47.147Z,3.90
2023-01-11T18:13:34.066Z,3.92
2023-01-11T18:17:39.115Z,2.92
2023-01-11T18:21:27.047Z,3.25
2023-01-11T18:25:21.202Z,3.20
2023-01-11T18:29:04.211Z,3.70
2023-01-11T18:32:46.196Z,2.80
2023-01-11T18:36:29.958Z,3.50
2023-01-11T18:40:14.961Z,3.33
2023-01-11T18:43:57.003Z,3.03
2023-01-11T18:47:38.972Z,3.10
2023-01-11T18:51:33.585Z,3.55
2023-01-11T18:55:15.857Z,3.55
2023-01-11T18:58:58.310Z,3.13
2023-01-11T19:02:43.284Z,3.95
2023-01-11T19:06:26.715Z,3.50
2023-01-11T19:10:10.861Z,4.00
2023-01-11T19:13:52.774Z,3.78
2023-01-11T19:17:34.881Z,3.30
2023-01-11T19:21:16.854Z,4.22
2023-01-11T19:24:58.859Z,3.88
2023-01-11T19:28:40.877Z,3.60
2023-01-11T19:32:25.279Z,3.28
2023-01-11T19:36:08.508Z,2.63
2023-01-11T19:39:50.544Z,3.67
2023-01-11T19:43:32.494Z,3.20
2023-01-11T19:47:15.762Z,2.95
2023-01-11T19:51:02.794Z,2.75
2023-01-11T19:54:47.140Z,2.50
2023-01-11T19:58:29.582Z,2.72
2023-01-11T20:02:13.402Z,2.55
2023-01-11T20:06:04.747Z,2.80
2023-01-11T20:09:46.771Z,2.72
2023-01-11T20:13:28.728Z,2.38
2023-01-11T20:17:10.718Z,2.65
2023-01-11T20:20:58.726Z,2.88
2023-01-11T20:24:40.711Z,2.53
2023-01-11T20:28:22.701Z,2.40
2023-01-11T20:32:25.038Z,2.47
2023-01-11T20:36:12.201Z,2.75
2023-01-11T20:39:54.117Z,2.15
2023-01-11T20:43:39.726Z,2.47
2023-01-11T20:47:21.611Z,2.20
2023-01-11T20:51:03.906Z,3.60
2023-01-11T20:54:45.988Z,3.42
2023-01-11T20:58:28.136Z,6.03
2023-01-11T21:02:11.004Z,2.90
2023-01-11T21:05:53.851Z,4.50
2023-01-11T21:09:35.869Z,2.95
2023-01-11T21:13:17.925Z,2.88
2023-01-11T21:16:59.924Z,2.90
2023-01-11T21:20:51.196Z,2.65
2023-01-11T21:24:33.163Z,2.20
2023-01-11T21:28:15.111Z,2.58
2023-01-11T21:31:57.254Z,2.20
2023-01-11T21:35:39.198Z,2.00
2023-01-11T21:39:21.145Z,2.83
2023-01-11T21:43:03.168Z,2.45
2023-01-11T21:46:45.787Z,2.60
2023-01-11T21:50:28.175Z,1.58
2023-01-11T21:54:15.312Z,2.28
2023-01-11T21:57:57.296Z,2.00
2023-01-11T22:01:41.011Z,1.70
2023-01-11T22:05:24.533Z,2.03
2023-01-11T22:09:08.514Z,2.42
2023-01-11T22:12:50.517Z,3.05
2023-01-11T22:16:33.643Z,2.22
2023-01-11T22:20:17.647Z,3.15
2023-01-11T22:23:59.928Z,3.08
2023-01-11T22:27:41.901Z,2.50
2023-01-11T22:31:25.432Z,2.92
2023-01-11T22:35:08.259Z,2.33
2023-01-11T22:38:50.400Z,2.33
2023-01-11T22:42:32.332Z,3.30
2023-01-11T22:46:25.874Z,2.83
2023-01-11T22:50:08.540Z,2.88
2023-01-11T22:53:52.114Z,2.90
2023-01-11T22:57:34.048Z,3.13
2023-01-11T23:01:25.815Z,2.70
2023-01-11T23:05:08.601Z,2.42
2023-01-11T23:08:50.814Z,1.80
2023-01-11T23:12:51.310Z,1.75
2023-01-11T23:16:33.744Z,2.25
2023-01-11T23:20:15.953Z,1.65
2023-01-11T23:23:58.059Z,1.75
2023-01-11T23:27:39.957Z,1.63
2023-01-11T23:31:24.113Z,1.65
2023-01-11T23:35:06.579Z,1.10
2023-01-11T23:38:48.819Z,1.48
2023-01-11T23:42:30.778Z,1.48
2023-01-11T23:46:31.260Z,1.40
2023-01-11T23:50:13.201Z,0.80
2023-01-11T23:53:55.125Z,0.70
2023-01-11T23:57:37.037Z,0.70
